createdAt,value
2018-03-14T00:00:33.996Z,29.30
2018-03-14T00:03:01.525Z,29.50
2018-03-14T00:05:29.835Z,29.70
2018-03-14T00:07:57.374Z,29.60
2018-03-14T00:10:25.706Z,29.50
2018-03-14T00:12:53.236Z,29.30
2018-03-14T00:15:20.764Z,29.60
2018-03-14T00:17:48.299Z,29.00
2018-03-14T00:20:15.833Z,30.20
2018-03-14T00:22:43.393Z,29.80
2018-03-14T00:25:10.934Z,29.60
2018-03-14T00:27:38.496Z,29.00
2018-03-14T00:30:06.037Z,28.70
2018-03-14T00:32:34.364Z,29.20
2018-03-14T00:35:01.913Z,29.20
2018-03-14T00:37:29.467Z,28.80
2018-03-14T00:39:57.008Z,28.60
2018-03-14T00:42:25.323Z,29.40
2018-03-14T00:44:52.861Z,29.30
2018-03-14T00:47:20.419Z,29.00
2018-03-14T00:49:47.948Z,28.80
2018-03-14T00:52:16.288Z,29.00
2018-03-14T00:54:43.817Z,29.10
2018-03-14T00:57:11.419Z,28.80
2018-03-14T00:59:39.668Z,28.50
2018-03-14T01:02:07.195Z,28.20
2018-03-14T01:04:35.499Z,29.10
2018-03-14T01:07:03.046Z,28.90
2018-03-14T01:09:30.603Z,29.10
2018-03-14T01:11:58.139Z,28.60
2018-03-14T01:14:25.685Z,28.40
2018-03-14T01:16:53.223Z,28.90
2018-03-14T01:19:20.764Z,28.80
2018-03-14T01:21:48.296Z,29.20
2018-03-14T01:24:15.854Z,28.90
2018-03-14T01:26:44.156Z,28.60
2018-03-14T01:29:11.695Z,28.80
2018-03-14T01:31:39.226Z,28.60
2018-03-14T01:34:06.813Z,28.60
2018-03-14T01:36:35.109Z,28.50
2018-03-14T01:39:02.643Z,28.50
2018-03-14T01:41:31.020Z,28.50
2018-03-14T01:43:59.319Z,28.40
2018-03-14T01:46:26.867Z,28.30
2018-03-14T01:48:55.171Z,28.30
2018-03-14T01:51:22.713Z,28.20
2018-03-14T01:53:50.289Z,28.60
2018-03-14T01:56:17.840Z,29.20
2018-03-14T01:58:45.385Z,28.80
2018-03-14T02:01:13.695Z,28.80
2018-03-14T04:09:53.885Z,29.80
2018-03-14T04:12:21.397Z,30.30
2018-03-14T04:14:49.692Z,30.30
2018-03-14T04:17:17.212Z,29.80
2018-03-14T04:19:44.742Z,30.00
2018-03-14T04:22:12.265Z,29.90
2018-03-14T04:24:40.552Z,30.10
2018-03-14T04:27:08.065Z,30.00
2018-03-14T04:29:35.601Z,30.20
2018-03-14T04:32:03.117Z,29.20
2018-03-14T04:34:31.440Z,29.60
2018-03-14T04:36:58.956Z,29.50
2018-03-14T04:39:27.232Z,29.70
2018-03-14T04:41:55.519Z,29.60
2018-03-14T04:44:23.031Z,29.10
2018-03-14T04:46:50.565Z,29.90
2018-03-14T04:49:18.086Z,29.90
2018-03-14T04:51:46.397Z,30.30
2018-03-14T04:54:13.910Z,30.30
2018-03-14T04:56:41.443Z,29.70
2018-03-14T04:59:08.971Z,29.60
2018-03-14T05:01:36.500Z,29.80
2018-03-14T05:04:04.782Z,29.80
2018-03-14T05:06:33.085Z,29.70
2018-03-14T05:09:00.601Z,29.50
2018-03-14T05:11:28.128Z,29.80
2018-03-14T05:13:55.637Z,29.50
2018-03-14T05:16:23.929Z,30.00
2018-03-14T05:18:52.217Z,30.00
2018-03-14T05:21:19.736Z,30.10
2018-03-14T05:23:47.267Z,29.60
2018-03-14T05:26:14.780Z,29.20
2018-03-14T05:28:43.084Z,29.30
2018-03-14T05:31:10.684Z,29.40
2018-03-14T05:33:38.209Z,29.30
2018-03-14T05:36:05.716Z,29.40
2018-03-14T05:38:33.239Z,29.70
2018-03-14T05:41:00.766Z,29.60
2018-03-14T05:43:28.302Z,29.30
2018-03-14T05:45:55.820Z,29.80
2018-03-14T05:48:23.344Z,30.00
2018-03-14T05:50:51.667Z,29.50
2018-03-14T05:53:19.209Z,29.60
2018-03-14T05:55:46.729Z,29.10
2018-03-14T05:58:15.004Z,29.60
2018-03-14T06:00:43.295Z,29.20
2018-03-14T06:03:11.648Z,29.30
2018-03-14T06:05:39.124Z,29.20
2018-03-14T06:08:07.396Z,29.10
2018-03-14T06:10:35.766Z,29.30
2018-03-14T06:13:03.258Z,29.70
2018-03-14T06:15:30.793Z,29.20
2018-03-14T06:17:59.131Z,29.20
2018-03-14T06:20:26.663Z,29.20
2018-03-14T06:22:54.222Z,28.80
2018-03-14T06:25:21.757Z,29.50
2018-03-14T06:27:50.027Z,29.10
2018-03-14T06:30:18.456Z,28.60
2018-03-14T06:32:45.956Z,28.60
2018-03-14T06:35:13.468Z,28.80
2018-03-14T06:37:41.003Z,28.00
2018-03-14T06:40:09.284Z,28.80
2018-03-14T06:42:37.589Z,28.80
2018-03-14T06:45:05.097Z,28.70
2018-03-14T06:47:32.679Z,28.80
2018-03-14T06:50:00.964Z,28.40
2018-03-14T06:52:28.496Z,28.40
2018-03-14T06:54:56.026Z,28.70
2018-03-14T06:57:23.556Z,28.90
2018-03-14T07:00:02.819Z,28.60
2018-03-14T07:02:52.044Z,28.80
2018-03-14T07:05:32.113Z,28.20
2018-03-14T07:07:59.642Z,28.00
2018-03-14T07:10:27.929Z,28.70
2018-03-14T07:12:56.229Z,28.50
2018-03-14T07:15:23.749Z,28.60
2018-03-14T07:17:51.272Z,28.30
2018-03-14T07:20:18.799Z,28.00
2018-03-14T07:22:47.129Z,28.90
2018-03-14T07:25:14.871Z,29.00
2018-03-14T07:27:42.400Z,28.60
2018-03-14T07:30:10.703Z,29.00
2018-03-14T07:32:38.208Z,29.00
2018-03-14T07:35:05.735Z,28.90
2018-03-14T07:37:33.261Z,28.60
2018-03-14T07:40:00.790Z,28.80
2018-03-14T07:42:28.302Z,28.90
2018-03-14T07:44:55.828Z,29.40
2018-03-14T07:47:24.101Z,29.40
2018-03-14T07:49:52.389Z,29.30
2018-03-14T07:52:19.943Z,28.60
2018-03-14T07:54:48.238Z,29.30
2018-03-14T07:57:15.753Z,29.10
2018-03-14T07:59:43.283Z,29.60
2018-03-14T08:02:10.873Z,29.50
2018-03-14T08:04:38.412Z,28.10
2018-03-14T08:07:05.936Z,29.20
2018-03-14T08:09:33.465Z,29.00
2018-03-14T08:12:00.988Z,28.00
2018-03-14T08:14:28.545Z,29.20
2018-03-14T08:16:56.070Z,28.70
2018-03-14T08:19:24.351Z,28.60
2018-03-14T08:21:51.875Z,28.80
2018-03-14T08:24:19.401Z,28.40
2018-03-14T08:26:46.936Z,28.70
2018-03-14T08:29:14.462Z,28.20
2018-03-14T08:31:41.997Z,28.00
2018-03-14T08:34:09.516Z,27.60
2018-03-14T08:36:37.071Z,28.20
2018-03-14T08:39:04.589Z,28.50
2018-03-14T08:41:32.202Z,28.10
2018-03-14T08:44:00.462Z,28.00
2018-03-14T08:46:28.737Z,28.20
2018-03-14T08:48:57.042Z,27.50
2018-03-14T08:51:24.561Z,27.40
2018-03-14T08:53:52.101Z,28.00
2018-03-14T08:56:19.623Z,27.80
2018-03-14T08:58:47.176Z,27.80
2018-03-14T09:01:14.699Z,27.80
2018-03-14T09:03:42.224Z,27.70
2018-03-14T09:06:10.080Z,27.80
2018-03-14T09:08:37.656Z,27.40
2018-03-14T09:11:05.177Z,28.00
2018-03-14T09:13:35.435Z,27.80
2018-03-14T09:16:02.957Z,26.80
2018-03-14T09:18:31.643Z,27.60
2018-03-14T09:20:59.208Z,27.80
2018-03-14T09:23:26.739Z,27.60
2018-03-14T09:25:54.269Z,26.90
2018-03-14T09:28:21.789Z,27.40
2018-03-14T09:30:49.326Z,27.10
2018-03-14T09:33:17.630Z,26.20
2018-03-14T09:35:45.180Z,26.10
2018-03-14T09:38:13.456Z,27.20
2018-03-14T09:40:41.766Z,26.80
2018-03-14T09:43:09.280Z,26.90
2018-03-14T09:45:37.588Z,26.90
2018-03-14T09:48:05.102Z,26.90
2018-03-14T09:50:32.633Z,25.70
2018-03-14T09:53:00.149Z,26.40
2018-03-14T09:55:28.458Z,26.10
2018-03-14T09:57:55.976Z,26.00
2018-03-14T10:00:24.297Z,26.10
2018-03-14T10:02:51.815Z,26.20
2018-03-14T10:05:20.128Z,25.20
2018-03-14T10:07:47.661Z,25.20
2018-03-14T10:10:15.956Z,26.30
2018-03-14T10:12:43.479Z,26.30
2018-03-14T10:15:11.018Z,26.10
2018-03-14T10:17:38.546Z,25.10
2018-03-14T10:20:06.068Z,26.00
2018-03-14T10:22:34.372Z,26.20
2018-03-14T10:25:01.889Z,26.20
2018-03-14T10:27:29.430Z,25.80
2018-03-14T10:29:56.948Z,25.40
2018-03-14T10:32:24.476Z,25.70
2018-03-14T10:34:51.988Z,25.80
2018-03-14T10:37:19.536Z,25.50
2018-03-14T10:39:47.058Z,24.90
2018-03-14T10:42:14.594Z,25.60
2018-03-14T10:44:42.106Z,25.40
2018-03-14T10:47:09.641Z,25.70
2018-03-14T10:49:37.169Z,25.10
2018-03-14T10:52:04.708Z,25.60
2018-03-14T10:54:32.228Z,25.10
2018-03-14T10:57:00.559Z,25.40
2018-03-14T10:59:28.088Z,25.60
2018-03-14T11:01:55.618Z,24.90
2018-03-14T11:04:23.149Z,25.30
2018-03-14T11:06:51.475Z,25.40
2018-03-14T11:09:19.763Z,25.80
2018-03-14T11:11:47.276Z,25.90
2018-03-14T11:14:14.813Z,25.60
2018-03-14T11:16:42.336Z,25.50
2018-03-14T11:19:10.636Z,25.70
2018-03-14T11:21:38.285Z,25.70
2018-03-14T11:24:06.468Z,25.60
2018-03-14T11:26:33.990Z,25.50
2018-03-14T11:29:01.525Z,26.10
2018-03-14T11:31:29.031Z,25.50
2018-03-14T11:33:57.336Z,25.60
2018-03-14T11:36:24.863Z,25.40
2018-03-14T11:38:53.189Z,26.20
2018-03-14T11:41:20.710Z,26.80
2018-03-14T11:43:48.994Z,25.20
2018-03-14T11:46:16.532Z,25.40
2018-03-14T11:48:44.047Z,25.10
2018-03-14T11:51:11.582Z,25.30
2018-03-14T11:53:39.099Z,24.80
2018-03-14T11:56:06.628Z,24.80
2018-03-14T11:58:34.149Z,25.30
2018-03-14T12:01:01.676Z,25.80
2018-03-14T12:03:29.205Z,25.50
2018-03-14T12:05:56.736Z,25.00
2018-03-14T12:08:24.250Z,25.90
2018-03-14T12:10:51.795Z,25.90
2018-03-14T12:13:19.307Z,25.70
2018-03-14T12:15:46.840Z,25.40
2018-03-14T12:18:14.362Z,25.90
2018-03-14T12:20:41.894Z,25.80
2018-03-14T12:23:09.418Z,25.20
2018-03-14T12:25:36.963Z,26.20
2018-03-14T12:28:04.476Z,25.90
2018-03-14T12:30:31.992Z,25.80
2018-03-14T12:32:59.528Z,26.20
2018-03-14T12:35:27.039Z,26.10
2018-03-14T12:37:55.347Z,26.50
2018-03-14T12:40:22.862Z,26.50
2018-03-14T12:42:50.412Z,26.70
2018-03-14T12:45:17.928Z,26.40
2018-03-14T12:47:45.466Z,26.40
2018-03-14T12:50:12.991Z,26.00
2018-03-14T12:52:40.529Z,26.20
2018-03-14T12:55:08.052Z,26.50
2018-03-14T12:57:35.580Z,25.70
2018-03-14T13:00:03.106Z,25.80
2018-03-14T13:02:30.725Z,25.90
2018-03-14T13:04:58.976Z,26.70
2018-03-14T13:07:26.500Z,26.60
2018-03-14T13:09:54.029Z,26.00
2018-03-14T13:12:21.553Z,26.30
2018-03-14T13:14:49.090Z,25.70
2018-03-14T13:17:16.608Z,25.80
2018-03-14T13:19:44.152Z,26.00
2018-03-14T13:22:12.454Z,25.60
2018-03-14T13:24:40.025Z,26.10
2018-03-14T13:27:07.549Z,25.40
2018-03-14T13:29:35.840Z,25.80
2018-03-14T13:32:04.123Z,25.90
2018-03-14T13:34:31.661Z,26.00
2018-03-14T13:36:59.960Z,25.50
2018-03-14T13:39:27.495Z,25.30
2018-03-14T13:41:55.795Z,25.50
2018-03-14T13:44:23.328Z,25.30
2018-03-14T13:46:50.835Z,25.90
2018-03-14T13:49:18.388Z,25.70
2018-03-14T13:51:45.900Z,25.70
2018-03-14T13:54:13.438Z,26.20
2018-03-14T13:56:40.977Z,26.40
2018-03-14T13:59:08.489Z,26.00
2018-03-14T14:01:36.789Z,25.70
2018-03-14T14:04:05.072Z,25.50
2018-03-14T14:06:32.621Z,25.80
2018-03-14T14:09:00.949Z,25.80
2018-03-14T14:11:28.447Z,25.90
2018-03-14T14:13:56.754Z,25.90
2018-03-14T14:16:24.286Z,25.70
2018-03-14T14:18:52.584Z,25.50
2018-03-14T14:21:20.114Z,25.70
2018-03-14T14:23:47.628Z,25.80
2018-03-14T14:26:15.159Z,25.10
2018-03-14T14:28:43.434Z,25.10
2018-03-14T14:31:11.737Z,25.00
2018-03-14T14:33:39.270Z,26.00
2018-03-14T14:36:07.550Z,24.80
2018-03-14T14:38:35.876Z,25.30
2018-03-14T14:41:03.395Z,25.60
2018-03-14T14:43:31.697Z,25.00
2018-03-14T14:45:59.205Z,24.80
2018-03-14T14:48:26.728Z,24.60
2018-03-14T14:50:54.236Z,25.50
2018-03-14T14:53:22.540Z,26.00
2018-03-14T14:55:50.178Z,25.70
2018-03-14T14:58:18.476Z,25.90
2018-03-14T15:00:45.997Z,25.70
2018-03-14T15:03:13.533Z,25.40
2018-03-14T15:05:41.047Z,24.50
2018-03-14T15:08:09.348Z,24.80
2018-03-14T15:10:36.856Z,25.00
2018-03-14T15:13:04.403Z,25.40
2018-03-14T15:15:31.932Z,25.20
2018-03-14T15:17:59.470Z,26.00
2018-03-14T15:20:27.012Z,25.80
2018-03-14T15:22:55.300Z,26.10
2018-03-14T15:25:23.600Z,25.70
2018-03-14T15:27:51.154Z,25.80
2018-03-14T15:30:18.685Z,26.20
2018-03-14T15:32:46.978Z,26.50
2018-03-14T15:35:15.284Z,26.20
2018-03-14T15:37:42.810Z,26.10
2018-03-14T15:40:11.111Z,26.10
2018-03-14T15:42:38.631Z,26.20
2018-03-14T15:45:06.224Z,27.00
2018-03-14T15:47:33.761Z,26.20
2018-03-14T15:50:02.116Z,26.70
2018-03-14T15:52:29.623Z,27.20
2018-03-14T15:54:57.204Z,25.90
2018-03-14T15:57:24.729Z,26.90
2018-03-14T15:59:53.047Z,26.60
2018-03-14T16:02:20.558Z,26.50
2018-03-14T16:04:48.854Z,26.50
2018-03-14T16:07:16.392Z,26.60
2018-03-14T16:09:43.904Z,27.00
2018-03-14T16:12:11.435Z,26.30
2018-03-14T16:14:39.703Z,27.00
2018-03-14T16:17:08.000Z,26.90
2018-03-14T16:19:35.516Z,26.80
2018-03-14T16:22:03.056Z,27.40
2018-03-14T16:24:30.579Z,27.60
2018-03-14T16:26:58.109Z,27.40
2018-03-14T16:29:26.411Z,27.50
2018-03-14T16:31:53.957Z,27.30
2018-03-14T16:34:22.245Z,27.10
2018-03-14T16:36:50.549Z,27.70
2018-03-14T16:39:18.090Z,27.40
2018-03-14T16:41:45.628Z,27.10
2018-03-14T16:44:13.921Z,27.50
2018-03-14T16:46:42.229Z,27.60
2018-03-14T16:49:09.867Z,27.20
2018-03-14T16:51:37.412Z,28.20
2018-03-14T16:54:05.704Z,28.60
2018-03-14T16:56:33.262Z,28.70
2018-03-14T16:59:00.797Z,28.70
2018-03-14T17:01:28.317Z,27.60
2018-03-14T17:03:55.849Z,28.30
2018-03-14T17:06:23.369Z,28.50
2018-03-14T17:08:50.909Z,28.90
2018-03-14T17:11:18.420Z,27.50
2018-03-14T17:13:45.951Z,24.20
2018-03-14T17:16:14.256Z,26.90
2018-03-14T17:18:42.560Z,28.50
2018-03-14T17:21:10.109Z,28.60
2018-03-14T17:23:37.649Z,29.00
2018-03-14T17:26:05.932Z,29.70
2018-03-14T17:28:34.238Z,29.70
2018-03-14T17:31:01.761Z,29.80
2018-03-14T17:33:30.182Z,30.30
2018-03-14T17:35:57.701Z,30.20
2018-03-14T17:38:26.001Z,29.50
2018-03-14T17:40:53.521Z,29.80
2018-03-14T17:43:21.070Z,30.20
2018-03-14T17:45:48.584Z,30.40
2018-03-14T17:48:16.119Z,30.70
2018-03-14T17:50:44.413Z,30.70
2018-03-14T17:53:11.949Z,30.50
2018-03-14T17:55:40.243Z,31.10
2018-03-14T17:58:08.527Z,31.30
2018-03-14T18:00:36.828Z,30.80
2018-03-14T18:03:04.360Z,31.20
2018-03-14T18:05:32.667Z,32.10
2018-03-14T18:08:00.184Z,32.40
2018-03-14T18:10:28.485Z,31.80
2018-03-14T18:12:56.020Z,31.70
2018-03-14T18:15:24.320Z,31.70
2018-03-14T18:17:51.843Z,32.10
2018-03-14T18:20:19.390Z,31.40
2018-03-14T18:22:46.921Z,33.10
2018-03-14T18:25:14.452Z,31.90
2018-03-14T18:27:42.745Z,32.80
2018-03-14T18:30:10.275Z,32.80
2018-03-14T18:32:38.564Z,33.70
2018-03-14T18:35:06.896Z,33.40
2018-03-14T18:37:34.430Z,33.40
2018-03-14T18:40:01.949Z,33.20
2018-03-14T18:42:29.477Z,34.00
2018-03-14T18:44:56.984Z,33.90
2018-03-14T18:47:25.276Z,34.50
2018-03-14T18:49:52.804Z,34.30
2018-03-14T18:52:20.332Z,34.20
2018-03-14T18:54:47.846Z,34.40
2018-03-14T18:57:15.380Z,34.10
2018-03-14T18:59:42.897Z,34.50
2018-03-14T19:02:10.447Z,34.30
2018-03-14T19:04:37.993Z,34.80
2018-03-14T19:07:05.545Z,33.90
2018-03-14T19:09:33.862Z,34.40
2018-03-14T19:12:01.399Z,34.30
2018-03-14T19:14:28.921Z,34.90
2018-03-14T19:16:56.481Z,35.10
2018-03-14T19:19:24.006Z,35.30
2018-03-14T19:21:51.524Z,35.10
2018-03-14T19:24:19.832Z,34.90
2018-03-14T19:26:47.347Z,35.30
2018-03-14T19:29:15.644Z,34.80
2018-03-14T19:31:43.933Z,34.90
2018-03-14T19:34:11.469Z,34.80
2018-03-14T19:36:39.759Z,35.50
2018-03-14T19:39:08.068Z,35.60
2018-03-14T19:41:35.580Z,36.30
2018-03-14T19:44:03.882Z,35.90
2018-03-14T19:46:31.417Z,36.10
2018-03-14T19:48:59.724Z,36.00
2018-03-14T19:51:27.253Z,36.10
2018-03-14T19:53:55.552Z,35.20
2018-03-14T19:56:23.115Z,35.30
2018-03-14T19:58:50.617Z,36.10
2018-03-14T20:01:18.155Z,36.40
2018-03-14T20:03:45.668Z,36.10
2018-03-14T20:06:13.977Z,37.10
2018-03-14T20:08:41.511Z,37.00
2018-03-14T20:11:09.821Z,37.00
2018-03-14T20:13:37.337Z,37.60
2018-03-14T20:16:04.874Z,36.80
2018-03-14T20:18:32.387Z,35.90
2018-03-14T20:20:59.973Z,36.30
2018-03-14T20:23:28.224Z,36.30
2018-03-14T20:25:56.519Z,37.20
2018-03-14T20:28:24.037Z,37.00
2018-03-14T20:30:51.564Z,37.10
2018-03-14T20:33:19.087Z,37.80
2018-03-14T20:35:46.641Z,37.90
2018-03-14T20:38:14.926Z,37.20
2018-03-14T20:40:42.444Z,37.80
2018-03-14T20:43:10.068Z,37.60
2018-03-14T20:45:37.571Z,37.60
2018-03-14T20:48:05.117Z,37.70
2018-03-14T20:50:32.660Z,38.30
2018-03-14T20:53:00.189Z,37.80
2018-03-14T20:55:27.712Z,37.60
2018-03-14T20:57:55.284Z,37.50
2018-03-14T21:00:22.792Z,38.10
2018-03-14T21:02:50.325Z,38.00
2018-03-14T21:05:17.847Z,38.20
2018-03-14T21:07:46.172Z,38.20
2018-03-14T21:10:13.713Z,37.80
2018-03-14T21:12:41.270Z,38.00
2018-03-14T21:15:08.807Z,37.60
2018-03-14T21:17:36.366Z,37.60
2018-03-14T21:20:03.923Z,38.30
2018-03-14T21:22:31.436Z,37.80
2018-03-14T21:24:58.973Z,38.60
2018-03-14T21:27:27.260Z,38.00
2018-03-14T21:29:56.059Z,38.00
2018-03-14T21:32:23.581Z,37.80
2018-03-14T21:34:51.109Z,38.60
2018-03-14T21:37:18.665Z,38.70
2018-03-14T21:39:46.186Z,38.50
2018-03-14T21:42:14.473Z,38.70
2018-03-14T21:44:42.013Z,38.80
2018-03-14T21:47:10.303Z,38.30
2018-03-14T21:49:38.603Z,38.90
2018-03-14T21:52:06.117Z,38.40
2018-03-14T21:54:33.644Z,38.50
2018-03-14T21:57:12.957Z,38.60
2018-03-14T21:59:40.486Z,38.50
2018-03-14T22:02:08.781Z,38.80
2018-03-14T22:04:36.322Z,38.50
2018-03-14T22:07:04.678Z,38.30
2018-03-14T22:09:32.171Z,37.70
2018-03-14T22:12:00.506Z,39.40
2018-03-14T22:14:28.090Z,39.70
2018-03-14T22:16:55.577Z,38.00
2018-03-14T22:19:23.109Z,38.90
2018-03-14T22:21:50.649Z,37.70
2018-03-14T22:24:18.175Z,37.80
2018-03-14T22:26:45.716Z,39.40
2018-03-14T22:29:13.993Z,39.60
2018-03-14T22:31:42.295Z,38.50
2018-03-14T22:34:09.819Z,38.80
2018-03-14T22:36:38.116Z,38.90
2018-03-14T22:39:05.642Z,38.70
2018-03-14T22:41:33.184Z,39.40
2018-03-14T22:44:00.697Z,40.10
2018-03-14T22:46:28.228Z,39.30
2018-03-14T22:48:56.526Z,39.70
2018-03-14T22:51:24.831Z,39.60
2018-03-14T22:53:52.344Z,39.90
2018-03-14T22:56:19.898Z,39.10
2018-03-14T22:58:47.421Z,39.10
2018-03-14T23:01:14.947Z,38.90
2018-03-14T23:03:42.481Z,39.40
2018-03-14T23:06:10.795Z,40.50
2018-03-14T23:08:38.328Z,39.70
2018-03-14T23:11:06.622Z,39.80
2018-03-14T23:13:34.160Z,39.60
2018-03-14T23:16:01.686Z,39.20
2018-03-14T23:18:29.231Z,40.00
2018-03-14T23:20:56.758Z,39.30
2018-03-14T23:23:25.089Z,39.80
2018-03-14T23:25:53.390Z,39.50
2018-03-14T23:28:20.922Z,39.50
2018-03-14T23:30:48.467Z,38.50
2018-03-14T23:33:16.001Z,38.90
2018-03-14T23:35:43.546Z,39.30
2018-03-14T23:38:11.838Z,39.20
2018-03-14T23:40:40.139Z,39.50
2018-03-14T23:43:07.664Z,39.70
2018-03-14T23:45:35.963Z,39.80
2018-03-14T23:48:03.476Z,39.70
2018-03-14T23:50:31.045Z,40.10
2018-03-14T23:52:58.575Z,39.10
2018-03-14T23:55:26.108Z,40.50
2018-03-14T23:57:53.644Z,40.00
